Canefield, Roseau Canefield Airport (TDCF)

NameRoseau Canefield Airport
CityCanefield
CountryDominica
ICAOTDCF
IATADCF
Altitude4 m
CoordinatesGoogle Map
Live Air TrafficLiveATC.net
METARTDCF 142100Z 11009KT 9999 FEW018 27/19 Q1016
2018-12-14 21:00:00 Wind: East (110°) 4.63 m/s - Visibility: > 10000 m - Temperature: 27 °C - Dew point: 19 °C - Humidity: 61.6% - Pressure: 1016 hPa
Statistics

The table below shows the detailed information of all flights to/from Canefield, Roseau Canefield Airport (TDCF).